OVM YBUD-YBOK
Flight info
| Callsign | OVM |
|---|---|
| Flight time | 2h 9m |
| Altitude | 1000 |
| Route | VFR |
| Aircraft | DC3/M-V/N |
Departure
| Time | 2026-04-25 05:25 |
|---|---|
| Airport | Bundaberg Airport (YBUD) |
Arrival
| Time | 2026-04-25 07:35 |
|---|---|
| Airport | Oakey Army Aviation Centre (YBOK) |
| Time | Latitude | Longitude | Altitude | Speed | Heading |
|---|---|---|---|---|---|
| 2026-04-25 05:19 | -24.89784 | 152.31996 | 106 ft | 0 kts | 88° |
| 2026-04-25 05:22 | -24.89785 | 152.31999 | 106 ft | 1 kts | 170° |
| 2026-04-25 05:22 | -24.89788 | 152.31999 | 106 ft | 0 kts | 222° |
| 2026-04-25 05:23 | -24.89791 | 152.31928 | 105 ft | 20 kts | 308° |
| 2026-04-25 05:23 | -24.89687 | 152.31851 | 104 ft | 12 kts | 311° |
| 2026-04-25 05:23 | -24.89689 | 152.31819 | 105 ft | 0 kts | 244° |
| 2026-04-25 05:23 | -24.89690 | 152.31818 | 105 ft | 2 kts | 244° |
| 2026-04-25 05:24 | -24.89718 | 152.31772 | 107 ft | 10 kts | 199° |
| 2026-04-25 05:24 | -24.89795 | 152.31775 | 105 ft | 0 kts | 146° |
| 2026-04-25 05:24 | -24.89816 | 152.31789 | 106 ft | 18 kts | 147° |
| 2026-04-25 05:24 | -24.90087 | 152.31982 | 117 ft | 69 kts | 149° |
| 2026-04-25 05:25 | -24.90608 | 152.32332 | 137 ft | 98 kts | 145° |
| 2026-04-25 05:25 | -24.91186 | 152.32742 | 405 ft | 100 kts | 140° |
| 2026-04-25 05:25 | -24.91452 | 152.33075 | 638 ft | 96 kts | 117° |
| 2026-04-25 05:25 | -24.91412 | 152.33824 | 898 ft | 112 kts | 65° |
| 2026-04-25 05:26 | -24.90857 | 152.34497 | 1108 ft | 124 kts | 56° |
| 2026-04-25 05:26 | -24.90205 | 152.35219 | 1191 ft | 135 kts | 52° |
| 2026-04-25 05:26 | -24.89527 | 152.35945 | 1358 ft | 138 kts | 51° |
| 2026-04-25 05:26 | -24.88768 | 152.36681 | 1381 ft | 150 kts | 49° |
| 2026-04-25 05:27 | -24.87943 | 152.37454 | 1336 ft | 158 kts | 48° |
| 2026-04-25 05:27 | -24.87069 | 152.38222 | 1326 ft | 159 kts | 45° |
| 2026-04-25 05:27 | -24.86195 | 152.38966 | 1296 ft | 160 kts | 47° |
| 2026-04-25 05:27 | -24.85310 | 152.39717 | 1296 ft | 159 kts | 43° |
| 2026-04-25 05:28 | -24.84377 | 152.40402 | 1269 ft | 161 kts | 40° |
| 2026-04-25 05:28 | -24.83427 | 152.41077 | 1219 ft | 162 kts | 40° |
| 2026-04-25 05:28 | -24.82483 | 152.41757 | 1183 ft | 162 kts | 41° |
| 2026-04-25 05:28 | -24.81555 | 152.42452 | 1105 ft | 165 kts | 42° |
| 2026-04-25 05:29 | -24.80623 | 152.43176 | 1069 ft | 161 kts | 48° |
| 2026-04-25 05:29 | -24.80147 | 152.44189 | 1068 ft | 146 kts | 83° |
| 2026-04-25 05:29 | -24.80187 | 152.45317 | 845 ft | 151 kts | 113° |
| 2026-04-25 05:29 | -24.80830 | 152.46196 | 820 ft | 144 kts | 137° |
| 2026-04-25 05:30 | -24.81743 | 152.46632 | 719 ft | 146 kts | 153° |
| 2026-04-25 05:30 | -24.82685 | 152.46995 | 883 ft | 134 kts | 156° |
| 2026-04-25 05:30 | -24.83537 | 152.47353 | 950 ft | 133 kts | 155° |
| 2026-04-25 05:30 | -24.84425 | 152.47694 | 956 ft | 136 kts | 160° |
| 2026-04-25 05:31 | -24.85338 | 152.48004 | 957 ft | 138 kts | 158° |
| 2026-04-25 05:31 | -24.86291 | 152.48235 | 955 ft | 141 kts | 163° |
| 2026-04-25 05:31 | -24.87270 | 152.48430 | 955 ft | 142 kts | 164° |
| 2026-04-25 05:31 | -24.88252 | 152.48628 | 958 ft | 143 kts | 164° |
| 2026-04-25 05:32 | -24.88554 | 152.48688 | 959 ft | 143 kts | 164° |
| 2026-04-25 05:32 | -24.89542 | 152.48874 | 956 ft | 144 kts | 168° |
| 2026-04-25 05:32 | -24.90536 | 152.48985 | 958 ft | 144 kts | 169° |
| 2026-04-25 05:32 | -24.91548 | 152.49014 | 964 ft | 147 kts | 180° |
| 2026-04-25 05:33 | -24.92570 | 152.48926 | 962 ft | 147 kts | 178° |
| 2026-04-25 05:33 | -24.93603 | 152.48837 | 957 ft | 148 kts | 178° |
| 2026-04-25 05:33 | -24.94634 | 152.48749 | 954 ft | 147 kts | 178° |
| 2026-04-25 05:33 | -24.95660 | 152.48662 | 956 ft | 147 kts | 178° |
| 2026-04-25 05:34 | -24.96681 | 152.48584 | 955 ft | 147 kts | 176° |
| 2026-04-25 05:34 | -24.97711 | 152.48607 | 955 ft | 146 kts | 173° |
| 2026-04-25 05:34 | -24.98685 | 152.48843 | 952 ft | 141 kts | 152° |
| 2026-04-25 05:34 | -24.99555 | 152.49344 | 963 ft | 141 kts | 148° |
| 2026-04-25 05:35 | -25.00429 | 152.49867 | 965 ft | 142 kts | 148° |
| 2026-04-25 05:35 | -25.01281 | 152.50421 | 960 ft | 141 kts | 143° |
| 2026-04-25 05:35 | -25.02103 | 152.51010 | 962 ft | 142 kts | 144° |
| 2026-04-25 05:35 | -25.02936 | 152.51617 | 958 ft | 142 kts | 144° |
| 2026-04-25 05:36 | -25.03768 | 152.52219 | 959 ft | 142 kts | 144° |
| 2026-04-25 05:36 | -25.04592 | 152.52815 | 955 ft | 142 kts | 144° |
| 2026-04-25 05:36 | -25.05423 | 152.53420 | 961 ft | 142 kts | 144° |
| 2026-04-25 05:36 | -25.06262 | 152.53996 | 959 ft | 143 kts | 149° |
| 2026-04-25 05:37 | -25.07139 | 152.54530 | 962 ft | 143 kts | 148° |
| 2026-04-25 05:37 | -25.08035 | 152.55009 | 964 ft | 144 kts | 151° |
| 2026-04-25 05:37 | -25.08950 | 152.55476 | 959 ft | 144 kts | 152° |
| 2026-04-25 05:37 | -25.09862 | 152.55939 | 964 ft | 144 kts | 152° |
| 2026-04-25 05:38 | -25.10719 | 152.56508 | 965 ft | 143 kts | 144° |
| 2026-04-25 05:38 | -25.11522 | 152.57144 | 954 ft | 142 kts | 133° |
| 2026-04-25 05:38 | -25.12269 | 152.57854 | 968 ft | 141 kts | 139° |
| 2026-04-25 05:38 | -25.13042 | 152.58528 | 959 ft | 142 kts | 139° |
| 2026-04-25 05:39 | -25.13818 | 152.59203 | 961 ft | 142 kts | 139° |
| 2026-04-25 05:39 | -25.14609 | 152.59891 | 958 ft | 143 kts | 139° |
| 2026-04-25 05:39 | -25.15395 | 152.60571 | 962 ft | 143 kts | 139° |
| 2026-04-25 05:39 | -25.16173 | 152.61250 | 962 ft | 143 kts | 139° |
| 2026-04-25 05:40 | -25.17003 | 152.61859 | 960 ft | 144 kts | 147° |
| 2026-04-25 05:40 | -25.17891 | 152.62408 | 937 ft | 146 kts | 147° |
| 2026-04-25 05:40 | -25.18814 | 152.62877 | 927 ft | 146 kts | 152° |
| 2026-04-25 05:40 | -25.19744 | 152.63333 | 924 ft | 146 kts | 153° |
| 2026-04-25 05:41 | -25.20676 | 152.63791 | 926 ft | 145 kts | 152° |
| 2026-04-25 05:41 | -25.21593 | 152.64241 | 927 ft | 145 kts | 152° |
| 2026-04-25 05:41 | -25.22425 | 152.64839 | 932 ft | 141 kts | 139° |
| 2026-04-25 05:41 | -25.23195 | 152.65509 | 924 ft | 141 kts | 139° |
| 2026-04-25 05:42 | -25.23812 | 152.66330 | 936 ft | 138 kts | 117° |
| 2026-04-25 05:42 | -25.24274 | 152.67276 | 928 ft | 139 kts | 118° |
| 2026-04-25 05:42 | -25.24731 | 152.68211 | 929 ft | 140 kts | 118° |
| 2026-04-25 05:42 | -25.25193 | 152.69156 | 929 ft | 140 kts | 118° |
| 2026-04-25 05:43 | -25.25662 | 152.70114 | 927 ft | 141 kts | 118° |
| 2026-04-25 05:43 | -25.26071 | 152.71103 | 926 ft | 141 kts | 108° |
| 2026-04-25 05:43 | -25.26274 | 152.72150 | 931 ft | 141 kts | 98° |
| 2026-04-25 05:43 | -25.26390 | 152.73231 | 926 ft | 142 kts | 99° |
| 2026-04-25 05:44 | -25.26498 | 152.74326 | 928 ft | 143 kts | 99° |
| 2026-04-25 05:44 | -25.26606 | 152.75423 | 925 ft | 144 kts | 99° |
| 2026-04-25 05:44 | -25.26712 | 152.76526 | 929 ft | 143 kts | 99° |
| 2026-04-25 05:44 | -25.26816 | 152.77626 | 923 ft | 144 kts | 98° |
| 2026-04-25 05:45 | -25.26927 | 152.78734 | 868 ft | 146 kts | 100° |
| 2026-04-25 05:45 | -25.27104 | 152.79831 | 826 ft | 146 kts | 106° |
| 2026-04-25 05:45 | -25.27403 | 152.80894 | 644 ft | 145 kts | 107° |
| 2026-04-25 05:45 | -25.27651 | 152.81961 | 489 ft | 142 kts | 106° |
| 2026-04-25 05:46 | -25.27915 | 152.83003 | 408 ft | 137 kts | 107° |
| 2026-04-25 05:46 | -25.28092 | 152.84009 | 338 ft | 135 kts | 80° |
| 2026-04-25 05:46 | -25.27254 | 152.84482 | 444 ft | 156 kts | 14° |
| 2026-04-25 05:46 | -25.26296 | 152.83972 | 601 ft | 163 kts | 300° |
| 2026-04-25 05:47 | -25.26514 | 152.82890 | 499 ft | 150 kts | 204° |
| 2026-04-25 05:47 | -25.27398 | 152.83107 | 392 ft | 138 kts | 142° |
| 2026-04-25 05:47 | -25.28237 | 152.83521 | 564 ft | 125 kts | 151° |
| 2026-04-25 05:47 | -25.29050 | 152.83878 | 706 ft | 123 kts | 153° |
| 2026-04-25 05:48 | -25.29891 | 152.84099 | 844 ft | 125 kts | 169° |
| 2026-04-25 05:48 | -25.30757 | 152.83937 | 1015 ft | 131 kts | 191° |
| 2026-04-25 05:48 | -25.31595 | 152.83489 | 1120 ft | 135 kts | 198° |
| 2026-04-25 05:48 | -25.32470 | 152.83067 | 1117 ft | 140 kts | 192° |
| 2026-04-25 05:49 | -25.33395 | 152.82669 | 1122 ft | 145 kts | 195° |
| 2026-04-25 05:49 | -25.34330 | 152.82204 | 1130 ft | 148 kts | 196° |
| 2026-04-25 05:49 | -25.35290 | 152.81737 | 1125 ft | 151 kts | 195° |
| 2026-04-25 05:49 | -25.36259 | 152.81270 | 1122 ft | 152 kts | 195° |
| 2026-04-25 05:50 | -25.37237 | 152.80798 | 1118 ft | 153 kts | 194° |
| 2026-04-25 05:50 | -25.38221 | 152.80328 | 1121 ft | 154 kts | 195° |
| 2026-04-25 05:50 | -25.39194 | 152.79855 | 1121 ft | 154 kts | 195° |
| 2026-04-25 05:50 | -25.40186 | 152.79379 | 1122 ft | 154 kts | 195° |
| 2026-04-25 05:51 | -25.41175 | 152.78905 | 1119 ft | 155 kts | 197° |
| 2026-04-25 05:51 | -25.42137 | 152.78354 | 1126 ft | 156 kts | 200° |
| 2026-04-25 05:51 | -25.43105 | 152.77792 | 1124 ft | 156 kts | 199° |
| 2026-04-25 05:51 | -25.44086 | 152.77235 | 1125 ft | 156 kts | 199° |
| 2026-04-25 05:52 | -25.45052 | 152.76685 | 1127 ft | 156 kts | 198° |
| 2026-04-25 05:52 | -25.46018 | 152.76138 | 1135 ft | 156 kts | 198° |
| 2026-04-25 05:52 | -25.46995 | 152.75588 | 1137 ft | 156 kts | 198° |
| 2026-04-25 05:52 | -25.47954 | 152.75047 | 1134 ft | 156 kts | 198° |
| 2026-04-25 05:53 | -25.48929 | 152.74498 | 1140 ft | 156 kts | 198° |
| 2026-04-25 05:53 | -25.49901 | 152.73947 | 1137 ft | 157 kts | 198° |
| 2026-04-25 05:53 | -25.50881 | 152.73334 | 1024 ft | 167 kts | 208° |
| 2026-04-25 05:53 | -25.51764 | 152.72438 | 822 ft | 177 kts | 220° |
| 2026-04-25 05:54 | -25.52615 | 152.71385 | 494 ft | 187 kts | 220° |
| 2026-04-25 05:54 | -25.53616 | 152.70512 | 298 ft | 175 kts | 207° |
| 2026-04-25 05:54 | -25.54395 | 152.71823 | 425 ft | 150 kts | 53° |
| 2026-04-25 05:55 | -25.53378 | 152.72116 | 494 ft | 164 kts | 349° |
| 2026-04-25 05:55 | -25.52631 | 152.71236 | 561 ft | 163 kts | 271° |
| 2026-04-25 05:55 | -25.53249 | 152.70407 | 589 ft | 141 kts | 193° |
| 2026-04-25 05:55 | -25.54115 | 152.70157 | 919 ft | 119 kts | 185° |
| 2026-04-25 05:56 | -25.54911 | 152.69948 | 1090 ft | 118 kts | 181° |
| 2026-04-25 05:56 | -25.55720 | 152.69826 | 1296 ft | 113 kts | 173° |
| 2026-04-25 05:56 | -25.56494 | 152.69853 | 1468 ft | 112 kts | 169° |
| 2026-04-25 05:56 | -25.57301 | 152.69772 | 1620 ft | 117 kts | 179° |
| 2026-04-25 05:57 | -25.58072 | 152.69791 | 1813 ft | 108 kts | 161° |
| 2026-04-25 05:57 | -25.58801 | 152.69928 | 1998 ft | 107 kts | 163° |
| 2026-04-25 05:57 | -25.59565 | 152.70010 | 2129 ft | 110 kts | 165° |
| 2026-04-25 05:57 | -25.60331 | 152.70093 | 2279 ft | 112 kts | 165° |
| 2026-04-25 05:58 | -25.61118 | 152.70171 | 2429 ft | 113 kts | 165° |
| 2026-04-25 05:58 | -25.61898 | 152.70253 | 2584 ft | 113 kts | 164° |
| 2026-04-25 05:58 | -25.62682 | 152.70332 | 2737 ft | 113 kts | 164° |
| 2026-04-25 05:58 | -25.63477 | 152.70412 | 2894 ft | 114 kts | 164° |
| 2026-04-25 05:59 | -25.64268 | 152.70493 | 2963 ft | 120 kts | 165° |
| 2026-04-25 05:59 | -25.65132 | 152.70596 | 2962 ft | 129 kts | 164° |
| 2026-04-25 05:59 | -25.66046 | 152.70714 | 2953 ft | 134 kts | 163° |
| 2026-04-25 05:59 | -25.66987 | 152.70837 | 2951 ft | 137 kts | 164° |
| 2026-04-25 06:00 | -25.67952 | 152.70969 | 2954 ft | 138 kts | 164° |
| 2026-04-25 06:00 | -25.68927 | 152.71019 | 2952 ft | 141 kts | 168° |
| 2026-04-25 06:00 | -25.69922 | 152.71056 | 2946 ft | 142 kts | 169° |
| 2026-04-25 06:00 | -25.70918 | 152.71089 | 2947 ft | 143 kts | 169° |
| 2026-04-25 06:01 | -25.71914 | 152.71123 | 2950 ft | 143 kts | 169° |
| 2026-04-25 06:01 | -25.72914 | 152.71158 | 2948 ft | 143 kts | 169° |
| 2026-04-25 06:01 | -25.73918 | 152.71201 | 2947 ft | 144 kts | 169° |
| 2026-04-25 06:01 | -25.74918 | 152.71240 | 2938 ft | 144 kts | 168° |
| 2026-04-25 06:02 | -25.75922 | 152.71278 | 2938 ft | 144 kts | 169° |
| 2026-04-25 06:02 | -25.76939 | 152.71323 | 2934 ft | 144 kts | 169° |
| 2026-04-25 06:02 | -25.77940 | 152.71368 | 2948 ft | 147 kts | 168° |
| 2026-04-25 06:02 | -25.78990 | 152.71422 | 2953 ft | 151 kts | 169° |
| 2026-04-25 06:03 | -25.80050 | 152.71483 | 2957 ft | 153 kts | 169° |
| 2026-04-25 06:03 | -25.81116 | 152.71545 | 2956 ft | 153 kts | 169° |
| 2026-04-25 06:03 | -25.82194 | 152.71609 | 2960 ft | 155 kts | 169° |
| 2026-04-25 06:03 | -25.83298 | 152.71626 | 2947 ft | 161 kts | 180° |
| 2026-04-25 06:04 | -25.84395 | 152.71463 | 2964 ft | 161 kts | 179° |
| 2026-04-25 06:04 | -25.85514 | 152.71295 | 2964 ft | 161 kts | 179° |
| 2026-04-25 06:04 | -25.86640 | 152.71130 | 2966 ft | 162 kts | 179° |
| 2026-04-25 06:04 | -25.87755 | 152.70966 | 2963 ft | 162 kts | 179° |
| 2026-04-25 06:05 | -25.88884 | 152.70801 | 2963 ft | 162 kts | 178° |
| 2026-04-25 06:05 | -25.90004 | 152.70641 | 2963 ft | 162 kts | 178° |
| 2026-04-25 06:05 | -25.91132 | 152.70476 | 2970 ft | 162 kts | 178° |
| 2026-04-25 06:05 | -25.92258 | 152.70316 | 2969 ft | 162 kts | 178° |
| 2026-04-25 06:06 | -25.93392 | 152.70151 | 2962 ft | 163 kts | 178° |
| 2026-04-25 06:06 | -25.94515 | 152.69992 | 2965 ft | 162 kts | 178° |
| 2026-04-25 06:06 | -25.95633 | 152.69833 | 2971 ft | 162 kts | 178° |
| 2026-04-25 06:06 | -25.96764 | 152.69672 | 2967 ft | 162 kts | 178° |
| 2026-04-25 06:07 | -25.97888 | 152.69514 | 2961 ft | 162 kts | 179° |
| 2026-04-25 06:07 | -25.99009 | 152.69356 | 2961 ft | 162 kts | 178° |
| 2026-04-25 06:07 | -26.00139 | 152.69196 | 2957 ft | 162 kts | 178° |
| 2026-04-25 06:07 | -26.01268 | 152.69034 | 2961 ft | 162 kts | 177° |
| 2026-04-25 06:08 | -26.02388 | 152.68880 | 2965 ft | 162 kts | 178° |
| 2026-04-25 06:08 | -26.03521 | 152.68723 | 2969 ft | 162 kts | 178° |
| 2026-04-25 06:08 | -26.04654 | 152.68571 | 2856 ft | 169 kts | 177° |
| 2026-04-25 06:08 | -26.05842 | 152.68422 | 2690 ft | 174 kts | 178° |
| 2026-04-25 06:09 | -26.07079 | 152.68271 | 2531 ft | 177 kts | 178° |
| 2026-04-25 06:09 | -26.08306 | 152.68124 | 2377 ft | 178 kts | 178° |
| 2026-04-25 06:09 | -26.09546 | 152.67981 | 2223 ft | 179 kts | 177° |
| 2026-04-25 06:09 | -26.10798 | 152.67837 | 2081 ft | 179 kts | 177° |
| 2026-04-25 06:10 | -26.12047 | 152.67686 | 1917 ft | 181 kts | 179° |
| 2026-04-25 06:10 | -26.13323 | 152.67418 | 1527 ft | 193 kts | 187° |
| 2026-04-25 06:10 | -26.14634 | 152.67073 | 1274 ft | 185 kts | 184° |
| 2026-04-25 06:10 | -26.15851 | 152.66824 | 1145 ft | 171 kts | 182° |
| 2026-04-25 06:11 | -26.17011 | 152.66606 | 925 ft | 167 kts | 185° |
| 2026-04-25 06:11 | -26.18089 | 152.66226 | 839 ft | 162 kts | 193° |
| 2026-04-25 06:11 | -26.19161 | 152.65912 | 806 ft | 150 kts | 179° |
| 2026-04-25 06:11 | -26.19947 | 152.66187 | 1213 ft | 112 kts | 124° |
| 2026-04-25 06:12 | -26.19920 | 152.67073 | 1112 ft | 134 kts | 69° |
| 2026-04-25 06:12 | -26.19032 | 152.67401 | 1105 ft | 161 kts | 345° |
| 2026-04-25 06:12 | -26.18573 | 152.66362 | 938 ft | 166 kts | 250° |
| 2026-04-25 06:12 | -26.19328 | 152.65544 | 801 ft | 148 kts | 185° |
| 2026-04-25 06:13 | -26.20175 | 152.65866 | 1082 ft | 122 kts | 131° |
| 2026-04-25 06:13 | -26.20639 | 152.66521 | 1528 ft | 101 kts | 128° |
| 2026-04-25 06:13 | -26.21095 | 152.67142 | 1682 ft | 104 kts | 121° |
| 2026-04-25 06:14 | -26.21861 | 152.68437 | 2172 ft | 97 kts | 122° |
| 2026-04-25 06:14 | -26.22227 | 152.69064 | 2387 ft | 96 kts | 122° |
| 2026-04-25 06:14 | -26.22588 | 152.69681 | 2610 ft | 95 kts | 121° |
| 2026-04-25 06:14 | -26.22945 | 152.70290 | 2817 ft | 94 kts | 122° |
| 2026-04-25 06:15 | -26.23303 | 152.70901 | 3029 ft | 94 kts | 123° |
| 2026-04-25 06:15 | -26.23735 | 152.71568 | 2989 ft | 116 kts | 135° |
| 2026-04-25 06:15 | -26.24524 | 152.71956 | 2992 ft | 130 kts | 151° |
| 2026-04-25 06:15 | -26.25364 | 152.72378 | 2991 ft | 133 kts | 140° |
| 2026-04-25 06:16 | -26.26161 | 152.72972 | 2993 ft | 138 kts | 137° |
| 2026-04-25 06:16 | -26.26906 | 152.73656 | 2996 ft | 141 kts | 136° |
| 2026-04-25 06:16 | -26.27673 | 152.74368 | 2993 ft | 143 kts | 136° |
| 2026-04-25 06:16 | -26.28436 | 152.75082 | 2990 ft | 145 kts | 136° |
| 2026-04-25 06:17 | -26.29217 | 152.75813 | 2988 ft | 145 kts | 136° |
| 2026-04-25 06:17 | -26.29989 | 152.76541 | 2987 ft | 145 kts | 136° |
| 2026-04-25 06:17 | -26.30766 | 152.77271 | 2988 ft | 146 kts | 136° |
| 2026-04-25 06:17 | -26.31540 | 152.78000 | 2987 ft | 146 kts | 136° |
| 2026-04-25 06:18 | -26.32320 | 152.78735 | 2986 ft | 146 kts | 136° |
| 2026-04-25 06:18 | -26.33089 | 152.79460 | 2986 ft | 145 kts | 136° |
| 2026-04-25 06:18 | -26.33858 | 152.80196 | 2982 ft | 145 kts | 135° |
| 2026-04-25 06:18 | -26.34637 | 152.80936 | 2991 ft | 145 kts | 136° |
| 2026-04-25 06:19 | -26.35399 | 152.81662 | 2983 ft | 144 kts | 136° |
| 2026-04-25 06:19 | -26.36213 | 152.82344 | 2986 ft | 144 kts | 140° |
| 2026-04-25 06:19 | -26.37037 | 152.82993 | 2977 ft | 144 kts | 141° |
| 2026-04-25 06:19 | -26.37869 | 152.83630 | 2975 ft | 144 kts | 140° |
| 2026-04-25 06:20 | -26.38696 | 152.84271 | 2979 ft | 145 kts | 141° |
| 2026-04-25 06:20 | -26.39524 | 152.84915 | 2980 ft | 145 kts | 141° |
| 2026-04-25 06:20 | -26.40324 | 152.85586 | 2975 ft | 145 kts | 139° |
| 2026-04-25 06:20 | -26.41134 | 152.86264 | 2988 ft | 145 kts | 139° |
| 2026-04-25 06:21 | -26.41938 | 152.86942 | 2988 ft | 145 kts | 139° |
| 2026-04-25 06:21 | -26.42742 | 152.87624 | 2980 ft | 145 kts | 139° |
| 2026-04-25 06:21 | -26.43546 | 152.88307 | 2984 ft | 145 kts | 139° |
| 2026-04-25 06:21 | -26.44349 | 152.88989 | 2980 ft | 144 kts | 139° |
| 2026-04-25 06:22 | -26.45148 | 152.89671 | 2984 ft | 144 kts | 139° |
| 2026-04-25 06:22 | -26.45948 | 152.90349 | 2994 ft | 145 kts | 138° |
| 2026-04-25 06:22 | -26.46755 | 152.91038 | 2994 ft | 145 kts | 139° |
| 2026-04-25 06:22 | -26.47549 | 152.91722 | 2994 ft | 145 kts | 138° |
| 2026-04-25 06:23 | -26.48353 | 152.92413 | 3007 ft | 145 kts | 138° |
| 2026-04-25 06:23 | -26.49154 | 152.93105 | 3000 ft | 145 kts | 139° |
| 2026-04-25 06:23 | -26.49959 | 152.93802 | 2999 ft | 145 kts | 138° |
| 2026-04-25 06:23 | -26.50756 | 152.94498 | 2992 ft | 145 kts | 138° |
| 2026-04-25 06:24 | -26.51543 | 152.95184 | 2991 ft | 145 kts | 138° |
| 2026-04-25 06:24 | -26.52336 | 152.95883 | 2995 ft | 145 kts | 139° |
| 2026-04-25 06:24 | -26.53134 | 152.96588 | 2999 ft | 146 kts | 138° |
| 2026-04-25 06:24 | -26.53938 | 152.97288 | 2997 ft | 147 kts | 138° |
| 2026-04-25 06:25 | -26.54753 | 152.98009 | 3005 ft | 148 kts | 139° |
| 2026-04-25 06:25 | -26.55555 | 152.98720 | 3000 ft | 148 kts | 138° |
| 2026-04-25 06:25 | -26.56373 | 152.99434 | 3001 ft | 148 kts | 138° |
| 2026-04-25 06:25 | -26.57179 | 153.00137 | 3004 ft | 148 kts | 138° |
| 2026-04-25 06:26 | -26.58001 | 153.00858 | 3007 ft | 148 kts | 137° |
| 2026-04-25 06:26 | -26.58810 | 153.01570 | 2851 ft | 157 kts | 138° |
| 2026-04-25 06:26 | -26.59698 | 153.02367 | 2487 ft | 169 kts | 138° |
| 2026-04-25 06:26 | -26.60640 | 153.03229 | 2103 ft | 176 kts | 138° |
| 2026-04-25 06:27 | -26.61597 | 153.04109 | 1728 ft | 179 kts | 138° |
| 2026-04-25 06:27 | -26.62546 | 153.05006 | 1351 ft | 181 kts | 138° |
| 2026-04-25 06:27 | -26.63481 | 153.05965 | 973 ft | 183 kts | 135° |
| 2026-04-25 06:27 | -26.64166 | 153.07106 | 984 ft | 168 kts | 116° |
| 2026-04-25 06:28 | -26.64614 | 153.08278 | 1003 ft | 161 kts | 115° |
| 2026-04-25 06:28 | -26.65051 | 153.09413 | 925 ft | 153 kts | 125° |
| 2026-04-25 06:28 | -26.65755 | 153.10268 | 942 ft | 147 kts | 137° |
| 2026-04-25 06:28 | -26.66538 | 153.11032 | 814 ft | 151 kts | 141° |
| 2026-04-25 06:29 | -26.67364 | 153.11780 | 755 ft | 150 kts | 138° |
| 2026-04-25 06:29 | -26.67927 | 153.12740 | 773 ft | 146 kts | 118° |
| 2026-04-25 06:29 | -26.68695 | 153.13429 | 787 ft | 144 kts | 162° |
| 2026-04-25 06:29 | -26.69676 | 153.13533 | 926 ft | 138 kts | 171° |
| 2026-04-25 06:30 | -26.70639 | 153.13528 | 979 ft | 140 kts | 175° |
| 2026-04-25 06:30 | -26.71645 | 153.13481 | 949 ft | 147 kts | 176° |
| 2026-04-25 06:30 | -26.72691 | 153.13460 | 960 ft | 148 kts | 173° |
| 2026-04-25 06:30 | -26.73730 | 153.13477 | 968 ft | 149 kts | 174° |
| 2026-04-25 06:31 | -26.74758 | 153.13509 | 1055 ft | 145 kts | 171° |
| 2026-04-25 06:31 | -26.75779 | 153.13582 | 1077 ft | 147 kts | 171° |
| 2026-04-25 06:31 | -26.76801 | 153.13660 | 1077 ft | 149 kts | 170° |
| 2026-04-25 06:31 | -26.77835 | 153.13818 | 1049 ft | 150 kts | 165° |
| 2026-04-25 06:32 | -26.78882 | 153.13925 | 1131 ft | 149 kts | 173° |
| 2026-04-25 06:32 | -26.79924 | 153.13760 | 1165 ft | 153 kts | 185° |
| 2026-04-25 06:32 | -26.80971 | 153.13455 | 1168 ft | 157 kts | 188° |
| 2026-04-25 06:32 | -26.82027 | 153.13106 | 1215 ft | 155 kts | 187° |
| 2026-04-25 06:33 | -26.83076 | 153.12854 | 1258 ft | 153 kts | 181° |
| 2026-04-25 06:33 | -26.84124 | 153.12753 | 1261 ft | 152 kts | 174° |
| 2026-04-25 06:33 | -26.85207 | 153.12762 | 1171 ft | 156 kts | 172° |
| 2026-04-25 06:33 | -26.86281 | 153.12882 | 1150 ft | 155 kts | 167° |
| 2026-04-25 06:34 | -26.87355 | 153.13069 | 1151 ft | 153 kts | 162° |
| 2026-04-25 06:34 | -26.88395 | 153.13341 | 1145 ft | 153 kts | 164° |
| 2026-04-25 06:34 | -26.89445 | 153.13507 | 1127 ft | 154 kts | 168° |
| 2026-04-25 06:34 | -26.90489 | 153.13744 | 1114 ft | 152 kts | 159° |
| 2026-04-25 06:35 | -26.91489 | 153.14131 | 1116 ft | 150 kts | 154° |
| 2026-04-25 06:35 | -26.92482 | 153.14529 | 1120 ft | 150 kts | 156° |
| 2026-04-25 06:35 | -26.93492 | 153.14865 | 1121 ft | 151 kts | 161° |
| 2026-04-25 06:35 | -26.94500 | 153.15157 | 1116 ft | 152 kts | 162° |
| 2026-04-25 06:36 | -26.95551 | 153.15408 | 1121 ft | 152 kts | 163° |
| 2026-04-25 06:36 | -26.96579 | 153.15660 | 1125 ft | 152 kts | 163° |
| 2026-04-25 06:36 | -26.97632 | 153.15922 | 1126 ft | 153 kts | 162° |
| 2026-04-25 06:36 | -26.98666 | 153.16177 | 1127 ft | 153 kts | 162° |
| 2026-04-25 06:37 | -26.99699 | 153.16470 | 1126 ft | 152 kts | 161° |
| 2026-04-25 06:37 | -27.00691 | 153.16855 | 1124 ft | 149 kts | 153° |
| 2026-04-25 06:37 | -27.01656 | 153.17314 | 1128 ft | 149 kts | 151° |
| 2026-04-25 06:37 | -27.02606 | 153.17807 | 1131 ft | 150 kts | 152° |
| 2026-04-25 06:38 | -27.03563 | 153.18311 | 1129 ft | 151 kts | 152° |
| 2026-04-25 06:38 | -27.04509 | 153.18806 | 1124 ft | 151 kts | 151° |
| 2026-04-25 06:38 | -27.05471 | 153.19310 | 1121 ft | 151 kts | 151° |
| 2026-04-25 06:38 | -27.06428 | 153.19812 | 1124 ft | 151 kts | 151° |
| 2026-04-25 06:39 | -27.07383 | 153.20312 | 1119 ft | 150 kts | 151° |
| 2026-04-25 06:39 | -27.08328 | 153.20798 | 1122 ft | 150 kts | 152° |
| 2026-04-25 06:39 | -27.09387 | 153.20746 | 1110 ft | 165 kts | 200° |
| 2026-04-25 06:39 | -27.10152 | 153.19720 | 1114 ft | 181 kts | 245° |
| 2026-04-25 06:40 | -27.10117 | 153.18306 | 1119 ft | 189 kts | 287° |
| 2026-04-25 06:40 | -27.09689 | 153.16910 | 1105 ft | 190 kts | 296° |
| 2026-04-25 06:40 | -27.08702 | 153.15985 | 1101 ft | 185 kts | 346° |
| 2026-04-25 06:40 | -27.07492 | 153.16023 | 1106 ft | 171 kts | 30° |
| 2026-04-25 06:41 | -27.06496 | 153.16716 | 1113 ft | 167 kts | 40° |
| 2026-04-25 06:41 | -27.05531 | 153.17429 | 1112 ft | 167 kts | 41° |
| 2026-04-25 06:41 | -27.04551 | 153.18153 | 1110 ft | 168 kts | 41° |
| 2026-04-25 06:41 | -27.03951 | 153.19153 | 1111 ft | 153 kts | 86° |
| 2026-04-25 06:42 | -27.04252 | 153.20235 | 1104 ft | 148 kts | 132° |
| 2026-04-25 06:42 | -27.05110 | 153.20885 | 1102 ft | 151 kts | 154° |
| 2026-04-25 06:42 | -27.06126 | 153.21187 | 1098 ft | 154 kts | 169° |
| 2026-04-25 06:42 | -27.07214 | 153.21054 | 1126 ft | 160 kts | 192° |
| 2026-04-25 06:43 | -27.08058 | 153.20181 | 1100 ft | 179 kts | 238° |
| 2026-04-25 06:43 | -27.08310 | 153.18788 | 1109 ft | 185 kts | 256° |
| 2026-04-25 06:43 | -27.08094 | 153.17358 | 1108 ft | 190 kts | 301° |
| 2026-04-25 06:43 | -27.07097 | 153.16452 | 1098 ft | 183 kts | 345° |
| 2026-04-25 06:44 | -27.05930 | 153.16484 | 1097 ft | 160 kts | 31° |
| 2026-04-25 06:44 | -27.05216 | 153.17287 | 1100 ft | 138 kts | 76° |
| 2026-04-25 06:44 | -27.05286 | 153.18283 | 1101 ft | 127 kts | 122° |
| 2026-04-25 06:44 | -27.06002 | 153.18805 | 1103 ft | 131 kts | 166° |
| 2026-04-25 06:45 | -27.06902 | 153.18517 | 1104 ft | 145 kts | 211° |
| 2026-04-25 06:45 | -27.07411 | 153.17506 | 1102 ft | 159 kts | 256° |
| 2026-04-25 06:45 | -27.07199 | 153.16290 | 1104 ft | 164 kts | 301° |
| 2026-04-25 06:45 | -27.06329 | 153.15494 | 1108 ft | 159 kts | 346° |
| 2026-04-25 06:46 | -27.05284 | 153.15511 | 1103 ft | 145 kts | 31° |
| 2026-04-25 06:46 | -27.04629 | 153.16232 | 1106 ft | 128 kts | 76° |
| 2026-04-25 06:46 | -27.04689 | 153.17158 | 1116 ft | 120 kts | 122° |
| 2026-04-25 06:46 | -27.05384 | 153.17665 | 1108 ft | 128 kts | 166° |
| 2026-04-25 06:47 | -27.06291 | 153.17558 | 1107 ft | 131 kts | 180° |
| 2026-04-25 06:47 | -27.07195 | 153.17314 | 1094 ft | 139 kts | 201° |
| 2026-04-25 06:47 | -27.07792 | 153.16428 | 1101 ft | 154 kts | 247° |
| 2026-04-25 06:47 | -27.07717 | 153.15214 | 1106 ft | 162 kts | 292° |
| 2026-04-25 06:48 | -27.06959 | 153.14314 | 1110 ft | 160 kts | 337° |
| 2026-04-25 06:48 | -27.05911 | 153.14169 | 1110 ft | 148 kts | 22° |
| 2026-04-25 06:48 | -27.05138 | 153.14795 | 1109 ft | 132 kts | 67° |
| 2026-04-25 06:48 | -27.04862 | 153.15745 | 1106 ft | 127 kts | 82° |
| 2026-04-25 06:49 | -27.04736 | 153.16702 | 1100 ft | 122 kts | 106° |
| 2026-04-25 06:49 | -27.05262 | 153.17392 | 1110 ft | 124 kts | 152° |
| 2026-04-25 06:49 | -27.06150 | 153.17363 | 1107 ft | 138 kts | 197° |
| 2026-04-25 06:49 | -27.06824 | 153.16542 | 1111 ft | 153 kts | 241° |
| 2026-04-25 06:50 | -27.07442 | 153.15648 | 1105 ft | 138 kts | 199° |
| 2026-04-25 06:50 | -27.08307 | 153.15248 | 1111 ft | 135 kts | 193° |
| 2026-04-25 06:50 | -27.09188 | 153.14868 | 1117 ft | 135 kts | 193° |
| 2026-04-25 06:50 | -27.10076 | 153.14496 | 1119 ft | 135 kts | 193° |
| 2026-04-25 06:51 | -27.10963 | 153.14133 | 1123 ft | 135 kts | 192° |
| 2026-04-25 06:51 | -27.11851 | 153.13768 | 1126 ft | 135 kts | 192° |
| 2026-04-25 06:51 | -27.12735 | 153.13405 | 1123 ft | 136 kts | 193° |
| 2026-04-25 06:51 | -27.13624 | 153.13040 | 1125 ft | 136 kts | 193° |
| 2026-04-25 06:52 | -27.14520 | 153.12672 | 1126 ft | 136 kts | 192° |
| 2026-04-25 06:52 | -27.15450 | 153.12309 | 1085 ft | 147 kts | 190° |
| 2026-04-25 06:52 | -27.16442 | 153.11945 | 1069 ft | 154 kts | 190° |
| 2026-04-25 06:52 | -27.17527 | 153.11708 | 938 ft | 160 kts | 178° |
| 2026-04-25 06:53 | -27.18658 | 153.11682 | 857 ft | 163 kts | 176° |
| 2026-04-25 06:53 | -27.19798 | 153.11694 | 762 ft | 165 kts | 173° |
| 2026-04-25 06:53 | -27.20926 | 153.11829 | 739 ft | 162 kts | 171° |
| 2026-04-25 06:53 | -27.22070 | 153.11793 | 692 ft | 165 kts | 182° |
| 2026-04-25 06:54 | -27.23207 | 153.11574 | 670 ft | 166 kts | 187° |
| 2026-04-25 06:54 | -27.24330 | 153.11278 | 639 ft | 164 kts | 190° |
| 2026-04-25 06:54 | -27.25446 | 153.11067 | 614 ft | 159 kts | 164° |
| 2026-04-25 06:54 | -27.26096 | 153.11945 | 651 ft | 156 kts | 99° |
| 2026-04-25 06:55 | -27.25725 | 153.13066 | 653 ft | 164 kts | 47° |
| 2026-04-25 06:55 | -27.24632 | 153.13429 | 660 ft | 171 kts | 353° |
| 2026-04-25 06:55 | -27.23475 | 153.13185 | 742 ft | 167 kts | 350° |
| 2026-04-25 06:55 | -27.22331 | 153.12843 | 760 ft | 169 kts | 346° |
| 2026-04-25 06:56 | -27.21194 | 153.12529 | 800 ft | 167 kts | 352° |
| 2026-04-25 06:56 | -27.20023 | 153.12466 | 765 ft | 169 kts | 3° |
| 2026-04-25 06:56 | -27.18880 | 153.12520 | 707 ft | 170 kts | 353° |
| 2026-04-25 06:56 | -27.17923 | 153.11720 | 605 ft | 178 kts | 290° |
| 2026-04-25 06:57 | -27.18191 | 153.10529 | 578 ft | 164 kts | 213° |
| 2026-04-25 06:57 | -27.19192 | 153.10654 | 488 ft | 156 kts | 129° |
| 2026-04-25 06:57 | -27.19782 | 153.11580 | 701 ft | 139 kts | 145° |
| 2026-04-25 06:57 | -27.20733 | 153.11780 | 808 ft | 140 kts | 177° |
| 2026-04-25 06:58 | -27.21744 | 153.11678 | 708 ft | 150 kts | 181° |
| 2026-04-25 06:58 | -27.22717 | 153.11597 | 646 ft | 131 kts | 180° |
| 2026-04-25 06:58 | -27.23523 | 153.11598 | 541 ft | 104 kts | 171° |
| 2026-04-25 06:58 | -27.24166 | 153.11499 | 471 ft | 84 kts | 191° |
| 2026-04-25 06:59 | -27.24705 | 153.11389 | 399 ft | 75 kts | 160° |
| 2026-04-25 06:59 | -27.24976 | 153.11845 | 350 ft | 76 kts | 90° |
| 2026-04-25 06:59 | -27.24651 | 153.12297 | 376 ft | 78 kts | 22° |
| 2026-04-25 06:59 | -27.24118 | 153.12129 | 344 ft | 89 kts | 316° |
| 2026-04-25 07:00 | -27.23627 | 153.11717 | 438 ft | 88 kts | 336° |
| 2026-04-25 07:00 | -27.23039 | 153.11632 | 515 ft | 82 kts | 32° |
| 2026-04-25 07:00 | -27.22884 | 153.12128 | 556 ft | 72 kts | 126° |
| 2026-04-25 07:00 | -27.23388 | 153.12099 | 543 ft | 87 kts | 205° |
| 2026-04-25 07:01 | -27.23899 | 153.11716 | 627 ft | 88 kts | 207° |
| 2026-04-25 07:01 | -27.24414 | 153.11291 | 755 ft | 96 kts | 209° |
| 2026-04-25 07:01 | -27.24938 | 153.10828 | 964 ft | 93 kts | 210° |
| 2026-04-25 07:01 | -27.25440 | 153.10312 | 1098 ft | 101 kts | 215° |
| 2026-04-25 07:02 | -27.26025 | 153.09753 | 1042 ft | 123 kts | 207° |
| 2026-04-25 07:02 | -27.26726 | 153.09140 | 1081 ft | 131 kts | 211° |
| 2026-04-25 07:02 | -27.27453 | 153.08456 | 1145 ft | 139 kts | 210° |
| 2026-04-25 07:02 | -27.28288 | 153.07890 | 1182 ft | 139 kts | 193° |
| 2026-04-25 07:03 | -27.29193 | 153.07457 | 1191 ft | 143 kts | 196° |
| 2026-04-25 07:03 | -27.30108 | 153.06988 | 1187 ft | 147 kts | 197° |
| 2026-04-25 07:03 | -27.31050 | 153.06508 | 1190 ft | 149 kts | 198° |
| 2026-04-25 07:03 | -27.32023 | 153.06084 | 1193 ft | 147 kts | 186° |
| 2026-04-25 07:04 | -27.33027 | 153.05788 | 1190 ft | 149 kts | 188° |
| 2026-04-25 07:04 | -27.34033 | 153.05493 | 1189 ft | 150 kts | 188° |
| 2026-04-25 07:04 | -27.35053 | 153.05319 | 1186 ft | 147 kts | 181° |
| 2026-04-25 07:04 | -27.36077 | 153.05202 | 1189 ft | 148 kts | 180° |
| 2026-04-25 07:05 | -27.37110 | 153.05124 | 1187 ft | 147 kts | 178° |
| 2026-04-25 07:05 | -27.38133 | 153.05055 | 1193 ft | 147 kts | 178° |
| 2026-04-25 07:05 | -27.39171 | 153.04988 | 1182 ft | 148 kts | 178° |
| 2026-04-25 07:05 | -27.40194 | 153.04803 | 1186 ft | 149 kts | 184° |
| 2026-04-25 07:06 | -27.41224 | 153.04590 | 1187 ft | 151 kts | 185° |
| 2026-04-25 07:06 | -27.42259 | 153.04376 | 1186 ft | 152 kts | 185° |
| 2026-04-25 07:06 | -27.43319 | 153.04160 | 1187 ft | 153 kts | 185° |
| 2026-04-25 07:06 | -27.44363 | 153.03944 | 1188 ft | 151 kts | 185° |
| 2026-04-25 07:07 | -27.45401 | 153.03734 | 1191 ft | 151 kts | 184° |
| 2026-04-25 07:07 | -27.46443 | 153.03522 | 1191 ft | 152 kts | 184° |
| 2026-04-25 07:07 | -27.47490 | 153.03304 | 1187 ft | 152 kts | 185° |
| 2026-04-25 07:07 | -27.48543 | 153.03026 | 1162 ft | 161 kts | 200° |
| 2026-04-25 07:08 | -27.49336 | 153.02103 | 1191 ft | 166 kts | 224° |
| 2026-04-25 07:08 | -27.50055 | 153.01077 | 1192 ft | 168 kts | 226° |
| 2026-04-25 07:08 | -27.50786 | 153.00026 | 1192 ft | 169 kts | 226° |
| 2026-04-25 07:08 | -27.51504 | 152.98993 | 1195 ft | 169 kts | 226° |
| 2026-04-25 07:09 | -27.52239 | 152.97940 | 1189 ft | 170 kts | 225° |
| 2026-04-25 07:09 | -27.52971 | 152.96895 | 1191 ft | 170 kts | 225° |
| 2026-04-25 07:09 | -27.53698 | 152.95844 | 1186 ft | 170 kts | 226° |
| 2026-04-25 07:09 | -27.54439 | 152.94783 | 1189 ft | 170 kts | 226° |
| 2026-04-25 07:10 | -27.55170 | 152.93739 | 1179 ft | 170 kts | 226° |
| 2026-04-25 07:10 | -27.55892 | 152.92690 | 1183 ft | 170 kts | 226° |
| 2026-04-25 07:10 | -27.56623 | 152.91626 | 1193 ft | 171 kts | 225° |
| 2026-04-25 07:10 | -27.57367 | 152.90564 | 1194 ft | 172 kts | 225° |
| 2026-04-25 07:11 | -27.58110 | 152.89508 | 1189 ft | 172 kts | 225° |
| 2026-04-25 07:11 | -27.58713 | 152.88329 | 1195 ft | 174 kts | 237° |
| 2026-04-25 07:11 | -27.59273 | 152.87109 | 1189 ft | 175 kts | 237° |
| 2026-04-25 07:11 | -27.59829 | 152.85884 | 1189 ft | 176 kts | 238° |
| 2026-04-25 07:12 | -27.60243 | 152.84589 | 1199 ft | 175 kts | 247° |
| 2026-04-25 07:12 | -27.60951 | 152.81953 | 1190 ft | 176 kts | 248° |
| 2026-04-25 07:12 | -27.61232 | 152.80608 | 1179 ft | 176 kts | 251° |
| 2026-04-25 07:13 | -27.61531 | 152.79256 | 1193 ft | 177 kts | 250° |
| 2026-04-25 07:13 | -27.61842 | 152.77919 | 1193 ft | 177 kts | 250° |
| 2026-04-25 07:13 | -27.62153 | 152.76576 | 1191 ft | 177 kts | 251° |
| 2026-04-25 07:13 | -27.62470 | 152.75230 | 1197 ft | 178 kts | 250° |
| 2026-04-25 07:14 | -27.62784 | 152.73875 | 1195 ft | 178 kts | 250° |
| 2026-04-25 07:14 | -27.62992 | 152.72499 | 1188 ft | 179 kts | 257° |
| 2026-04-25 07:14 | -27.63185 | 152.71120 | 1199 ft | 181 kts | 256° |
| 2026-04-25 07:14 | -27.63387 | 152.69710 | 1201 ft | 182 kts | 255° |
| 2026-04-25 07:15 | -27.63597 | 152.68280 | 1201 ft | 183 kts | 256° |
| 2026-04-25 07:15 | -27.63700 | 152.66847 | 1196 ft | 184 kts | 261° |
| 2026-04-25 07:15 | -27.63794 | 152.65419 | 1207 ft | 184 kts | 262° |
| 2026-04-25 07:15 | -27.63897 | 152.63968 | 1207 ft | 184 kts | 261° |
| 2026-04-25 07:16 | -27.64010 | 152.62523 | 1201 ft | 184 kts | 261° |
| 2026-04-25 07:16 | -27.64120 | 152.61099 | 1205 ft | 184 kts | 260° |
| 2026-04-25 07:16 | -27.64226 | 152.59656 | 1206 ft | 184 kts | 262° |
| 2026-04-25 07:16 | -27.64335 | 152.58200 | 1208 ft | 185 kts | 261° |
| 2026-04-25 07:17 | -27.64444 | 152.56767 | 1207 ft | 185 kts | 261° |
| 2026-04-25 07:17 | -27.64563 | 152.55321 | 1211 ft | 184 kts | 261° |
| 2026-04-25 07:17 | -27.64676 | 152.53879 | 1209 ft | 184 kts | 261° |
| 2026-04-25 07:17 | -27.64794 | 152.52435 | 1204 ft | 184 kts | 261° |
| 2026-04-25 07:18 | -27.64906 | 152.50990 | 1227 ft | 183 kts | 261° |
| 2026-04-25 07:18 | -27.65005 | 152.49648 | 1536 ft | 166 kts | 261° |
| 2026-04-25 07:18 | -27.65079 | 152.48384 | 1816 ft | 157 kts | 261° |
| 2026-04-25 07:18 | -27.65145 | 152.47186 | 2044 ft | 153 kts | 262° |
| 2026-04-25 07:19 | -27.65211 | 152.46001 | 2270 ft | 151 kts | 261° |
| 2026-04-25 07:19 | -27.65280 | 152.44815 | 2482 ft | 151 kts | 260° |
| 2026-04-25 07:19 | -27.65342 | 152.43622 | 2700 ft | 151 kts | 260° |
| 2026-04-25 07:19 | -27.65404 | 152.42445 | 2909 ft | 151 kts | 261° |
| 2026-04-25 07:20 | -27.65456 | 152.41266 | 3085 ft | 150 kts | 259° |
| 2026-04-25 07:20 | -27.65509 | 152.40096 | 3261 ft | 150 kts | 260° |
| 2026-04-25 07:20 | -27.65358 | 152.38919 | 3438 ft | 152 kts | 282° |
| 2026-04-25 07:20 | -27.65113 | 152.37755 | 3614 ft | 153 kts | 280° |
| 2026-04-25 07:21 | -27.64868 | 152.36589 | 3786 ft | 154 kts | 280° |
| 2026-04-25 07:21 | -27.64622 | 152.35413 | 3969 ft | 154 kts | 281° |
| 2026-04-25 07:21 | -27.64377 | 152.34239 | 4146 ft | 154 kts | 281° |
| 2026-04-25 07:21 | -27.64129 | 152.33050 | 4322 ft | 155 kts | 280° |
| 2026-04-25 07:22 | -27.63885 | 152.31862 | 4500 ft | 155 kts | 280° |
| 2026-04-25 07:22 | -27.63639 | 152.30669 | 4575 ft | 163 kts | 281° |
| 2026-04-25 07:22 | -27.63377 | 152.29390 | 4574 ft | 173 kts | 281° |
| 2026-04-25 07:22 | -27.63114 | 152.28044 | 4571 ft | 180 kts | 281° |
| 2026-04-25 07:23 | -27.62840 | 152.26653 | 4572 ft | 184 kts | 280° |
| 2026-04-25 07:23 | -27.62562 | 152.25218 | 4570 ft | 186 kts | 280° |
| 2026-04-25 07:23 | -27.62290 | 152.23790 | 4568 ft | 188 kts | 281° |
| 2026-04-25 07:23 | -27.62017 | 152.22353 | 4571 ft | 190 kts | 280° |
| 2026-04-25 07:24 | -27.61734 | 152.20868 | 4570 ft | 194 kts | 280° |
| 2026-04-25 07:24 | -27.61447 | 152.19383 | 4572 ft | 196 kts | 281° |
| 2026-04-25 07:24 | -27.61161 | 152.17879 | 4566 ft | 197 kts | 280° |
| 2026-04-25 07:24 | -27.60873 | 152.16359 | 4569 ft | 199 kts | 280° |
| 2026-04-25 07:25 | -27.60590 | 152.14833 | 4576 ft | 199 kts | 280° |
| 2026-04-25 07:25 | -27.60301 | 152.13280 | 4574 ft | 201 kts | 279° |
| 2026-04-25 07:25 | -27.60019 | 152.11752 | 4571 ft | 201 kts | 279° |
| 2026-04-25 07:25 | -27.59735 | 152.10205 | 4571 ft | 202 kts | 279° |
| 2026-04-25 07:26 | -27.59452 | 152.08647 | 4570 ft | 202 kts | 280° |
| 2026-04-25 07:26 | -27.59169 | 152.07100 | 4569 ft | 202 kts | 280° |
| 2026-04-25 07:26 | -27.58888 | 152.05550 | 4573 ft | 202 kts | 280° |
| 2026-04-25 07:26 | -27.58610 | 152.03983 | 4575 ft | 204 kts | 280° |
| 2026-04-25 07:27 | -27.58339 | 152.02423 | 4575 ft | 205 kts | 280° |
| 2026-04-25 07:27 | -27.58067 | 152.00853 | 4576 ft | 205 kts | 280° |
| 2026-04-25 07:27 | -27.57794 | 151.99258 | 4583 ft | 205 kts | 278° |
| 2026-04-25 07:27 | -27.57220 | 151.97816 | 4614 ft | 201 kts | 303° |
| 2026-04-25 07:28 | -27.56418 | 151.96493 | 4577 ft | 203 kts | 307° |
| 2026-04-25 07:28 | -27.55588 | 151.95216 | 4588 ft | 203 kts | 309° |
| 2026-04-25 07:28 | -27.54744 | 151.93933 | 4590 ft | 204 kts | 309° |
| 2026-04-25 07:28 | -27.53890 | 151.92633 | 4584 ft | 204 kts | 309° |
| 2026-04-25 07:29 | -27.53045 | 151.91357 | 4589 ft | 204 kts | 308° |
| 2026-04-25 07:29 | -27.52196 | 151.90070 | 4584 ft | 204 kts | 309° |
| 2026-04-25 07:29 | -27.51339 | 151.88773 | 4586 ft | 203 kts | 309° |
| 2026-04-25 07:29 | -27.50494 | 151.87495 | 4600 ft | 203 kts | 309° |
| 2026-04-25 07:30 | -27.49652 | 151.86221 | 4599 ft | 205 kts | 309° |
| 2026-04-25 07:30 | -27.48800 | 151.84938 | 4507 ft | 209 kts | 309° |
| 2026-04-25 07:30 | -27.47907 | 151.83589 | 4327 ft | 217 kts | 309° |
| 2026-04-25 07:30 | -27.47003 | 151.82199 | 4178 ft | 219 kts | 307° |
| 2026-04-25 07:31 | -27.46156 | 151.80792 | 4085 ft | 218 kts | 309° |
| 2026-04-25 07:31 | -27.45187 | 151.79443 | 3846 ft | 220 kts | 312° |
| 2026-04-25 07:31 | -27.44261 | 151.78090 | 3540 ft | 220 kts | 307° |
| 2026-04-25 07:31 | -27.43200 | 151.76907 | 3172 ft | 208 kts | 326° |
| 2026-04-25 07:32 | -27.42092 | 151.76035 | 2792 ft | 180 kts | 332° |
| 2026-04-25 07:32 | -27.41095 | 151.75365 | 2540 ft | 151 kts | 334° |
| 2026-04-25 07:32 | -27.40282 | 151.74748 | 2362 ft | 140 kts | 327° |
| 2026-04-25 07:32 | -27.39543 | 151.74123 | 2241 ft | 126 kts | 329° |
| 2026-04-25 07:33 | -27.38845 | 151.73587 | 2079 ft | 121 kts | 327° |
| 2026-04-25 07:33 | -27.38643 | 151.72763 | 1911 ft | 111 kts | 240° |
| 2026-04-25 07:33 | -27.39178 | 151.72354 | 1896 ft | 85 kts | 162° |
| 2026-04-25 07:33 | -27.39548 | 151.72823 | 1784 ft | 85 kts | 112° |
| 2026-04-25 07:34 | -27.39821 | 151.73338 | 1528 ft | 76 kts | 131° |
| 2026-04-25 07:34 | -27.40261 | 151.73685 | 1369 ft | 77 kts | 138° |
| 2026-04-25 07:34 | -27.40652 | 151.73996 | 1342 ft | 56 kts | 142° |
| 2026-04-25 07:34 | -27.40934 | 151.74219 | 1341 ft | 53 kts | 143° |
| 2026-04-25 07:35 | -27.41257 | 151.74466 | 1342 ft | 51 kts | 146° |
| 2026-04-25 07:35 | -27.41417 | 151.74593 | 1343 ft | 18 kts | 144° |
| 2026-04-25 07:35 | -27.41513 | 151.74603 | 1343 ft | 13 kts | 227° |
| 2026-04-25 07:35 | -27.41556 | 151.74503 | 1342 ft | 14 kts | 279° |
| 2026-04-25 07:36 | -27.41546 | 151.74406 | 1343 ft | 10 kts | 234° |
| 2026-04-25 07:36 | -27.41547 | 151.74393 | 1343 ft | 0 kts | 80° |